createdAt,value
2022-09-23T00:00:28.253Z,100.00
2022-09-23T00:03:18.226Z,100.00
2022-09-23T00:25:13.673Z,100.00
2022-09-23T00:27:47.029Z,100.00
2022-09-23T00:30:22.226Z,100.00
2022-09-23T00:32:53.473Z,100.00
2022-09-23T00:45:10.289Z,100.00
2022-09-23T00:52:08.168Z,100.00
2022-09-23T00:54:39.122Z,100.00
2022-09-23T00:57:09.898Z,100.00
2022-09-23T00:59:43.213Z,100.00
2022-09-23T01:02:20.353Z,100.00
2022-09-23T01:04:50.980Z,100.00
2022-09-23T01:07:22.416Z,100.00
2022-09-23T01:09:50.540Z,100.00
2022-09-23T01:12:57.924Z,100.00
2022-09-23T01:15:38.347Z,100.00
2022-09-23T01:18:30.094Z,100.00
2022-09-23T01:21:28.349Z,100.00
2022-09-23T01:24:26.688Z,100.00
2022-09-23T01:27:25.100Z,100.00
2022-09-23T01:30:18.317Z,100.00
2022-09-23T01:33:05.308Z,100.00
2022-09-23T01:35:48.018Z,100.00
2022-09-23T01:38:37.187Z,100.00
2022-09-23T01:41:24.575Z,100.00
2022-09-23T01:44:08.619Z,100.00
2022-09-23T01:46:50.756Z,100.00
2022-09-23T01:49:34.385Z,100.00
2022-09-23T01:52:40.727Z,100.00
2022-09-23T01:55:22.553Z,100.00
2022-09-23T01:58:02.268Z,100.00
2022-09-23T02:00:38.574Z,100.00
2022-09-23T02:03:29.122Z,100.00
2022-09-23T02:06:06.822Z,100.00
2022-09-23T02:09:02.761Z,100.00
2022-09-23T02:11:36.521Z,100.00
2022-09-23T02:14:11.142Z,100.00
2022-09-23T02:16:50.232Z,100.00
2022-09-23T02:19:40.936Z,100.00
2022-09-23T02:22:17.272Z,100.00
2022-09-23T02:24:46.149Z,100.00
2022-09-23T02:27:32.897Z,100.00
2022-09-23T02:30:14.150Z,100.00
2022-09-23T02:33:09.643Z,100.00
2022-09-23T02:35:58.618Z,100.00
2022-09-23T02:38:38.258Z,100.00
2022-09-23T02:41:29.474Z,100.00
2022-09-23T02:44:09.280Z,100.00
2022-09-23T02:46:38.539Z,100.00
2022-09-23T02:49:21.845Z,100.00
2022-09-23T02:51:54.699Z,100.00
2022-09-23T02:54:26.216Z,100.00
2022-09-23T02:56:54.721Z,100.00
2022-09-23T02:59:23.912Z,100.00
2022-09-23T03:02:24.120Z,100.00
2022-09-23T03:05:05.019Z,100.00
2022-09-23T03:08:13.111Z,100.00
2022-09-23T03:11:05.944Z,100.00
2022-09-23T03:13:43.709Z,100.00
2022-09-23T03:16:43.805Z,100.00
2022-09-23T03:19:25.695Z,100.00
2022-09-23T03:22:38.268Z,100.00
2022-09-23T03:25:34.391Z,100.00
2022-09-23T03:28:04.548Z,100.00
2022-09-23T03:30:37.334Z,100.00
2022-09-23T03:33:12.715Z,100.00
2022-09-23T03:36:17.601Z,100.00
2022-09-23T03:38:52.932Z,100.00
2022-09-23T03:41:35.402Z,100.00
2022-09-23T03:44:04.254Z,100.00
2022-09-23T03:46:34.181Z,100.00
2022-09-23T03:49:15.851Z,100.00
2022-09-23T03:51:44.826Z,100.00
2022-09-23T03:54:12.394Z,100.00
2022-09-23T03:56:40.217Z,100.00
2022-09-23T03:59:10.132Z,100.00
2022-09-23T04:01:39.255Z,100.00
2022-09-23T04:04:11.971Z,100.00
2022-09-23T04:06:41.108Z,100.00
2022-09-23T04:09:08.966Z,100.00
2022-09-23T04:11:37.491Z,100.00
2022-09-23T04:14:05.849Z,100.00
2022-09-23T04:16:33.937Z,100.00
2022-09-23T04:19:02.607Z,100.00
2022-09-23T04:21:32.180Z,100.00
2022-09-23T04:24:00.018Z,100.00
2022-09-23T04:26:27.616Z,100.00
2022-09-23T04:28:56.965Z,100.00
2022-09-23T04:31:24.649Z,100.00
2022-09-23T04:33:55.315Z,100.00
2022-09-23T04:36:23.996Z,100.00
2022-09-23T04:38:54.459Z,100.00
2022-09-23T04:41:23.205Z,100.00
2022-09-23T04:43:51.479Z,100.00
2022-09-23T04:46:19.510Z,100.00
2022-09-23T04:48:48.446Z,100.00
2022-09-23T04:51:20.413Z,100.00
2022-09-23T04:53:53.803Z,100.00
2022-09-23T04:56:35.279Z,100.00
2022-09-23T04:59:04.177Z,100.00
2022-09-23T05:01:34.713Z,100.00
2022-09-23T05:04:06.974Z,100.00
2022-09-23T05:06:36.648Z,100.00
2022-09-23T05:09:09.450Z,100.00
2022-09-23T05:11:37.505Z,100.00
2022-09-23T05:14:07.249Z,100.00
2022-09-23T05:16:36.060Z,100.00
2022-09-23T05:19:06.812Z,100.00
2022-09-23T05:21:37.201Z,100.00
2022-09-23T05:24:06.291Z,100.00
2022-09-23T05:26:35.345Z,100.00
2022-09-23T05:29:03.350Z,100.00
2022-09-23T05:31:31.706Z,100.00
2022-09-23T05:34:02.168Z,100.00
2022-09-23T05:36:36.878Z,100.00
2022-09-23T05:39:08.640Z,100.00
2022-09-23T05:41:37.870Z,100.00
2022-09-23T05:44:07.286Z,100.00
2022-09-23T05:46:36.137Z,100.00
2022-09-23T05:49:05.681Z,100.00
2022-09-23T05:51:36.017Z,100.00
2022-09-23T05:54:05.553Z,100.00
2022-09-23T05:56:36.266Z,100.00
2022-09-23T05:59:08.332Z,100.00
2022-09-23T06:01:38.697Z,100.00
2022-09-23T06:04:08.318Z,100.00
2022-09-23T06:06:41.858Z,100.00
2022-09-23T06:09:17.268Z,100.00
2022-09-23T06:11:47.622Z,100.00
2022-09-23T06:14:17.160Z,100.00
2022-09-23T06:16:46.828Z,100.00
2022-09-23T06:19:16.887Z,100.00
2022-09-23T06:21:45.615Z,100.00
2022-09-23T06:24:34.544Z,100.00
2022-09-23T06:27:08.059Z,100.00
2022-09-23T06:29:40.496Z,100.00
2022-09-23T06:32:08.228Z,100.00
2022-09-23T06:34:50.914Z,100.00
2022-09-23T06:37:21.016Z,100.00
2022-09-23T06:39:49.329Z,100.00
2022-09-23T06:42:17.586Z,100.00
2022-09-23T06:44:47.156Z,100.00
2022-09-23T06:47:15.804Z,100.00
2022-09-23T06:49:47.456Z,100.00
2022-09-23T06:52:16.504Z,100.00
2022-09-23T06:55:49.431Z,100.00
2022-09-23T06:58:17.244Z,100.00
2022-09-23T07:00:45.466Z,100.00
2022-09-23T07:03:14.522Z,100.00
2022-09-23T07:06:57.369Z,100.00
2022-09-23T07:09:26.029Z,100.00
2022-09-23T07:11:53.783Z,100.00
2022-09-23T07:14:23.815Z,100.00
2022-09-23T07:16:54.098Z,100.00
2022-09-23T07:19:23.118Z,100.00
2022-09-23T07:21:52.222Z,100.00
2022-09-23T07:24:19.885Z,100.00
2022-09-23T07:26:49.284Z,100.00
2022-09-23T07:29:20.318Z,100.00
2022-09-23T07:31:48.904Z,100.00
2022-09-23T07:34:17.597Z,100.00
2022-09-23T07:36:46.276Z,100.00
2022-09-23T07:39:15.165Z,100.00
2022-09-23T07:41:45.085Z,100.00
2022-09-23T07:44:16.430Z,100.00
2022-09-23T07:46:44.005Z,100.00
2022-09-23T07:49:12.514Z,100.00
2022-09-23T07:51:42.971Z,100.00
2022-09-23T07:54:14.795Z,100.00
2022-09-23T07:56:44.095Z,100.00
2022-09-23T07:59:17.330Z,100.00
2022-09-23T08:01:55.926Z,100.00
2022-09-23T08:04:28.453Z,100.00
2022-09-23T08:06:58.913Z,100.00
2022-09-23T08:09:30.046Z,100.00
2022-09-23T08:11:58.375Z,100.00
2022-09-23T08:14:27.677Z,100.00
2022-09-23T08:16:56.147Z,100.00
2022-09-23T08:19:26.430Z,100.00
2022-09-23T08:21:54.626Z,100.00
2022-09-23T08:24:24.312Z,100.00
2022-09-23T08:26:54.703Z,100.00
2022-09-23T08:29:26.316Z,100.00
2022-09-23T08:31:55.100Z,100.00
2022-09-23T08:34:28.216Z,100.00
2022-09-23T08:36:58.264Z,100.00
2022-09-23T08:39:26.543Z,100.00
2022-09-23T08:42:23.994Z,100.00
2022-09-23T08:45:02.570Z,100.00
2022-09-23T08:47:40.075Z,100.00
2022-09-23T08:50:21.103Z,100.00
2022-09-23T08:53:25.821Z,100.00
2022-09-23T08:55:58.789Z,100.00
2022-09-23T08:59:05.056Z,100.00
2022-09-23T09:01:52.221Z,100.00
2022-09-23T09:04:43.126Z,100.00
2022-09-23T09:07:37.815Z,100.00
2022-09-23T09:10:42.618Z,100.00
2022-09-23T09:13:31.330Z,100.00
2022-09-23T09:16:36.664Z,100.00
2022-09-23T09:19:21.007Z,100.00
2022-09-23T09:21:55.733Z,99.73
2022-09-23T09:24:35.326Z,98.71
2022-09-23T09:27:15.025Z,100.00
2022-09-23T09:29:49.929Z,100.00
2022-09-23T09:33:01.820Z,100.00
2022-09-23T09:35:50.456Z,100.00
2022-09-23T09:38:20.813Z,100.00
2022-09-23T09:40:50.778Z,100.00
2022-09-23T09:43:26.435Z,97.19
2022-09-23T09:46:17.411Z,90.04
2022-09-23T09:48:54.586Z,88.84
2022-09-23T09:51:23.671Z,90.83
2022-09-23T09:53:53.853Z,79.19
2022-09-23T09:56:40.101Z,82.58
2022-09-23T09:59:17.050Z,84.36
2022-09-23T10:01:46.334Z,83.56
2022-09-23T10:04:20.446Z,80.78
2022-09-23T10:07:13.003Z,74.18
2022-09-23T10:09:49.529Z,77.22
2022-09-23T10:12:25.598Z,77.50
2022-09-23T10:14:58.474Z,75.18
2022-09-23T10:17:38.821Z,64.46
2022-09-23T10:20:14.206Z,62.79
2022-09-23T10:22:44.556Z,62.93
2022-09-23T10:25:27.775Z,64.84
2022-09-23T10:27:55.401Z,61.90
2022-09-23T10:30:27.035Z,60.37
2022-09-23T10:32:57.139Z,51.95
2022-09-23T10:35:33.613Z,50.92
2022-09-23T10:38:03.443Z,51.25
2022-09-23T10:41:01.216Z,50.50
2022-09-23T10:44:22.184Z,49.40
2022-09-23T10:47:10.937Z,47.15
2022-09-23T10:49:57.008Z,47.75
2022-09-23T10:53:19.755Z,48.66
2022-09-23T10:56:16.465Z,49.33
2022-09-23T10:59:28.866Z,49.46
2022-09-23T11:02:17.639Z,47.58
2022-09-23T11:05:04.528Z,46.47
2022-09-23T11:07:41.504Z,46.70
2022-09-23T11:10:47.669Z,54.03
2022-09-23T11:13:45.287Z,46.55
2022-09-23T11:16:37.325Z,46.54
2022-09-23T11:19:32.530Z,48.27
2022-09-23T11:22:22.560Z,47.14
2022-09-23T11:25:06.961Z,54.04
2022-09-23T11:27:59.386Z,47.52
2022-09-23T11:30:41.888Z,48.42
2022-09-23T11:33:33.953Z,46.64
2022-09-23T11:36:40.328Z,49.70
2022-09-23T11:39:17.693Z,51.95
2022-09-23T11:41:47.109Z,48.89
2022-09-23T11:44:31.163Z,45.99
2022-09-23T11:47:14.296Z,44.72
2022-09-23T11:49:52.935Z,46.32
2022-09-23T11:52:54.131Z,44.68
2022-09-23T11:55:32.404Z,46.73
2022-09-23T11:58:27.692Z,47.25
2022-09-23T12:01:10.277Z,44.42
2022-09-23T12:04:11.504Z,45.00
2022-09-23T12:07:08.181Z,45.25
2022-09-23T12:10:00.555Z,48.76
2022-09-23T12:13:22.608Z,47.55
2022-09-23T12:16:25.154Z,46.91
2022-09-23T12:18:55.617Z,45.88
2022-09-23T12:21:50.228Z,45.47
2022-09-23T12:24:39.700Z,44.94
2022-09-23T12:27:22.774Z,43.39
2022-09-23T12:29:58.130Z,44.32
2022-09-23T12:32:26.841Z,44.18
2022-09-23T12:34:56.069Z,44.21
2022-09-23T12:37:28.128Z,45.83
2022-09-23T12:40:08.753Z,45.61
2022-09-23T12:42:44.271Z,45.64
2022-09-23T12:45:38.832Z,46.04
2022-09-23T12:48:43.256Z,46.11
2022-09-23T12:51:18.687Z,46.67
2022-09-23T12:53:54.631Z,45.35
2022-09-23T12:56:26.595Z,44.95
2022-09-23T12:59:02.554Z,46.02
2022-09-23T13:01:38.360Z,44.63
2022-09-23T13:04:27.769Z,45.78
2022-09-23T13:07:09.175Z,49.11
2022-09-23T13:09:46.472Z,51.70
2022-09-23T13:12:29.632Z,50.05
2022-09-23T13:15:03.518Z,51.24
2022-09-23T13:17:41.084Z,51.62
2022-09-23T13:20:37.506Z,51.25
2022-09-23T13:23:26.926Z,49.81
2022-09-23T13:26:07.912Z,50.72
2022-09-23T13:28:44.545Z,51.39
2022-09-23T13:31:18.078Z,51.85
2022-09-23T13:34:00.102Z,52.59
2022-09-23T13:36:27.807Z,52.63
2022-09-23T13:39:15.266Z,51.98
2022-09-23T13:41:45.702Z,50.28
2022-09-23T13:44:20.914Z,53.19
2022-09-23T13:46:51.586Z,50.57
2022-09-23T13:49:45.865Z,49.01
2022-09-23T13:52:32.226Z,49.60
2022-09-23T13:55:01.539Z,51.63
2022-09-23T13:57:36.642Z,52.65
2022-09-23T14:00:23.447Z,54.45
2022-09-23T14:02:53.465Z,54.31
2022-09-23T14:05:28.338Z,55.56
2022-09-23T14:07:56.902Z,56.04
2022-09-23T14:10:27.933Z,55.68
2022-09-23T14:12:57.474Z,50.59
2022-09-23T14:15:25.589Z,50.47
2022-09-23T14:18:04.367Z,49.32
2022-09-23T14:20:32.475Z,49.94
2022-09-23T14:23:12.339Z,48.07
2022-09-23T14:25:42.093Z,47.99
2022-09-23T14:28:31.435Z,48.45
2022-09-23T14:31:00.603Z,47.33
2022-09-23T14:33:34.431Z,47.09
2022-09-23T14:39:35.799Z,48.03
2022-09-23T14:42:07.777Z,46.94
2022-09-23T14:44:37.035Z,47.44
2022-09-23T14:47:12.327Z,46.49
2022-09-23T14:50:10.781Z,47.62
2022-09-23T14:52:51.505Z,48.43
2022-09-23T14:55:20.178Z,48.12
2022-09-23T14:57:48.115Z,48.29
2022-09-23T15:00:22.376Z,49.35
2022-09-23T15:03:13.822Z,50.03
2022-09-23T15:05:45.406Z,50.97
2022-09-23T15:08:23.773Z,52.20
2022-09-23T15:11:21.827Z,53.15
2022-09-23T15:13:52.798Z,53.04
2022-09-23T15:16:27.350Z,52.81
2022-09-23T15:19:00.000Z,53.08
2022-09-23T15:21:42.210Z,52.19
2022-09-23T15:24:45.195Z,52.08
2022-09-23T15:27:32.106Z,53.57
2022-09-23T15:30:16.313Z,55.03
2022-09-23T15:32:46.512Z,56.75
2022-09-23T15:35:20.166Z,53.47
2022-09-23T15:37:51.631Z,53.36
2022-09-23T15:40:36.012Z,53.36
2022-09-23T15:43:23.487Z,51.93
2022-09-23T15:45:56.413Z,53.36
2022-09-23T15:48:32.640Z,55.23
2022-09-23T15:51:05.680Z,56.71
2022-09-23T15:53:34.058Z,56.11
2022-09-23T15:56:04.783Z,57.69
2022-09-23T15:58:36.027Z,56.33
2022-09-23T16:01:38.580Z,58.04
2022-09-23T16:04:57.421Z,57.78
2022-09-23T16:07:52.644Z,58.26
2022-09-23T16:10:21.985Z,58.32
2022-09-23T16:12:58.756Z,59.12
2022-09-23T16:15:40.443Z,63.38
2022-09-23T16:18:35.802Z,64.63
2022-09-23T16:21:15.409Z,63.58
2022-09-23T16:23:49.295Z,62.41
2022-09-23T16:26:43.666Z,63.13
2022-09-23T16:29:20.233Z,65.83
2022-09-23T19:04:19.393Z,100.00
2022-09-23T19:06:52.145Z,100.00
2022-09-23T19:09:45.742Z,100.00
2022-09-23T19:12:41.603Z,100.00
2022-09-23T19:15:36.812Z,100.00
2022-09-23T19:32:15.230Z,100.00
2022-09-23T19:38:42.636Z,100.00
2022-09-23T19:41:19.879Z,100.00
2022-09-23T19:43:56.699Z,100.00
2022-09-23T19:46:55.730Z,100.00
2022-09-23T19:49:47.398Z,100.00
2022-09-23T19:52:36.154Z,100.00
2022-09-23T19:55:15.563Z,100.00
2022-09-23T19:58:00.339Z,100.00
2022-09-23T20:01:02.468Z,100.00
2022-09-23T20:03:37.766Z,100.00
2022-09-23T20:07:01.649Z,100.00
2022-09-23T20:10:39.869Z,100.00
2022-09-23T20:13:20.418Z,100.00
2022-09-23T20:15:56.136Z,100.00
2022-09-23T20:18:35.844Z,100.00
2022-09-23T20:21:14.414Z,100.00
2022-09-23T20:23:52.706Z,100.00
2022-09-23T20:27:09.870Z,100.00
2022-09-23T20:29:55.264Z,100.00
2022-09-23T20:32:42.777Z,100.00
2022-09-23T20:35:25.487Z,100.00
2022-09-23T20:38:10.949Z,100.00
2022-09-23T20:40:48.934Z,100.00
2022-09-23T20:43:34.870Z,100.00
2022-09-23T20:46:41.114Z,100.00
2022-09-23T20:49:28.768Z,100.00
2022-09-23T20:52:17.465Z,100.00
2022-09-23T20:54:48.310Z,100.00
2022-09-23T20:57:20.810Z,100.00
2022-09-23T21:00:30.574Z,100.00
2022-09-23T21:06:11.027Z,100.00
2022-09-23T21:08:48.125Z,100.00
2022-09-23T21:11:23.661Z,100.00
2022-09-23T21:14:02.349Z,100.00
2022-09-23T21:17:04.208Z,100.00
2022-09-23T21:20:10.109Z,100.00
2022-09-23T21:23:04.665Z,100.00
2022-09-23T21:25:45.103Z,100.00
2022-09-23T21:28:22.253Z,100.00
2022-09-23T21:31:09.619Z,100.00
2022-09-23T21:33:46.758Z,100.00
2022-09-23T21:36:18.142Z,100.00
2022-09-23T21:39:15.607Z,100.00
2022-09-23T21:41:52.058Z,100.00
2022-09-23T21:44:28.199Z,100.00
2022-09-23T21:47:01.888Z,100.00
2022-09-23T21:49:39.023Z,100.00
2022-09-23T21:52:22.094Z,100.00
2022-09-23T21:58:35.187Z,100.00
2022-09-23T22:01:51.853Z,100.00
2022-09-23T22:04:41.140Z,100.00
2022-09-23T22:07:13.479Z,100.00
2022-09-23T22:10:15.659Z,100.00
2022-09-23T22:12:53.614Z,100.00
2022-09-23T22:15:52.524Z,100.00
2022-09-23T22:18:48.499Z,100.00
2022-09-23T22:21:24.830Z,100.00
2022-09-23T22:26:49.877Z,100.00
2022-09-23T22:29:45.114Z,100.00
2022-09-23T22:32:39.975Z,100.00
2022-09-23T22:35:27.379Z,100.00
2022-09-23T22:37:57.469Z,100.00
2022-09-23T22:40:35.364Z,100.00
2022-09-23T22:43:07.041Z,100.00
2022-09-23T22:45:41.989Z,100.00
2022-09-23T22:48:25.726Z,100.00
2022-09-23T22:51:13.823Z,100.00
2022-09-23T22:53:48.956Z,100.00
2022-09-23T22:56:32.599Z,100.00
2022-09-23T22:59:11.368Z,100.00
2022-09-23T23:01:47.063Z,100.00
2022-09-23T23:04:23.619Z,100.00
2022-09-23T23:07:11.719Z,100.00
2022-09-23T23:09:47.197Z,100.00
2022-09-23T23:12:29.791Z,100.00
2022-09-23T23:15:07.108Z,100.00
2022-09-23T23:17:50.865Z,100.00
2022-09-23T23:20:37.238Z,100.00
2022-09-23T23:23:22.070Z,100.00
2022-09-23T23:25:56.220Z,100.00
2022-09-23T23:28:37.807Z,100.00
2022-09-23T23:31:26.187Z,100.00
2022-09-23T23:34:10.554Z,100.00
2022-09-23T23:36:49.320Z,100.00
2022-09-23T23:40:02.999Z,100.00
2022-09-23T23:42:48.762Z,100.00
2022-09-23T23:45:48.717Z,100.00
2022-09-23T23:51:40.312Z,100.00
2022-09-23T23:54:21.155Z,100.00
2022-09-23T23:57:01.984Z,100.00
2022-09-23T23:59:37.134Z,100.00
